Time;durP1;ratioP1;P1;durP2;ratioP2;P2;SDS_P1;SDS_P2;PMS_P1;PMS_P2;Temp;Humidity;BMP_temperature;BMP_pressure;BME280_temperature;BME280_humidity;BME280_pressure;Samples;Min_cycle;Max_cycle;Signal;HPM_P1;HPM_P2
2023/01/01 00:00:11;;;;;;;305.67;195.73;;;;;;;9.67;82.98;99692.41;340631;28;1283;-71
2023/01/01 00:00:23;;;;;;;313.45;198.63;;;;;;;9.71;82.90;99690.56;341100;29;1288;-71
2023/01/01 00:00:37;;;;;;;315.60;201.98;;;;;;;9.70;82.99;99686.28;341143;28;1055;-71
2023/01/01 00:00:49;;;;;;;313.80;197.90;;;;;;;9.74;82.98;99691.34;341140;29;1071;-71
2023/01/01 00:01:09;;;;;;;302.60;189.68;;;;;;;9.80;82.78;99695.53;340660;29;1092;-71
2023/01/01 00:01:21;;;;;;;291.08;184.55;;;;;;;9.82;83.03;99698.91;341004;29;1299;-70
2023/01/01 00:01:38;;;;;;;288.33;186.52;;;;;;;9.77;83.12;99699.03;340762;29;1466;-70
2023/01/01 00:01:50;;;;;;;293.60;193.05;;;;;;;9.73;83.36;99693.97;340988;29;1157;-70
2023/01/01 00:02:03;;;;;;;296.27;193.93;;;;;;;9.77;82.91;99693.00;341003;29;1313;-71
2023/01/01 00:02:15;;;;;;;296.58;191.35;;;;;;;9.80;83.07;99698.13;341638;28;1052;-70
2023/01/01 00:02:27;;;;;;;289.80;188.68;;;;;;;9.82;83.04;99695.44;343608;28;1015;-70
2023/01/01 00:02:47;;;;;;;288.77;184.25;;;;;;;9.85;82.58;99693.63;343398;28;1270;-71
2023/01/01 00:02:59;;;;;;;294.15;187.10;;;;;;;9.85;82.70;99693.63;343446;28;1271;-71
2023/01/01 00:03:13;;;;;;;298.58;189.88;;;;;;;9.86;82.92;99697.94;343339;28;1218;-71
2023/01/01 00:03:25;;;;;;;302.45;192.23;;;;;;;9.87;83.18;99699.63;343462;28;1075;-71
2023/01/01 00:03:38;;;;;;;304.33;194.00;;;;;;;9.86;82.56;99697.94;343563;28;1125;-71
2023/01/01 00:03:51;;;;;;;297.45;188.98;;;;;;;9.88;82.44;99695.28;343518;28;1117;-71
2023/01/01 00:04:03;;;;;;;293.60;185.27;;;;;;;9.88;82.81;99700.47;343443;28;1030;-71
2023/01/01 00:04:15;;;;;;;290.58;185.38;;;;;;;9.77;82.86;99695.59;343170;28;1047;-71
2023/01/01 00:04:27;;;;;;;285.10;186.88;;;;;;;9.75;83.23;99689.59;343131;28;855;-71
2023/01/01 00:04:39;;;;;;;283.13;188.55;;;;;;;9.66;83.59;99695.91;343131;28;1135;-71
2023/01/01 00:04:56;;;;;;;286.42;187.55;;;;;;;9.61;84.13;99697.78;343360;28;1139;-71
2023/01/01 00:05:08;;;;;;;288.95;185.48;;;;;;;9.68;84.05;99693.25;341910;28;1376;-71
2023/01/01 00:05:21;;;;;;;291.83;184.55;;;;;;;9.70;83.93;99694.06;342143;28;1083;-71
2023/01/01 00:05:33;;;;;;;296.35;187.52;;;;;;;9.68;83.67;99693.25;342504;28;1001;-71
2023/01/01 00:05:45;;;;;;;287.45;187.50;;;;;;;9.63;83.67;99695.13;342178;28;1036;-70
2023/01/01 00:05:57;;;;;;;289.83;189.52;;;;;;;9.57;83.64;99691.81;342411;28;969;-70
2023/01/01 00:06:12;;;;;;;293.40;189.10;;;;;;;9.65;83.77;99693.34;342115;28;1047;-71
2023/01/01 00:06:25;;;;;;;297.35;188.88;;;;;;;9.51;83.61;99697.16;341904;28;1148;-71
2023/01/01 00:06:37;;;;;;;292.30;189.80;;;;;;;9.43;84.10;99693.09;342270;28;1163;-71
2023/01/01 00:06:49;;;;;;;285.38;189.02;;;;;;;9.38;83.98;99691.47;341135;29;1083;-71
2023/01/01 00:07:01;;;;;;;287.05;187.73;;;;;;;9.38;84.18;99690.63;341020;29;1332;-71
2023/01/01 00:07:13;;;;;;;293.55;189.20;;;;;;;9.35;84.49;99694.13;340781;28;2265;-71
2023/01/01 00:07:25;;;;;;;295.58;188.65;;;;;;;9.43;84.49;99687.91;341270;28;1549;-71
2023/01/01 00:07:37;;;;;;;285.40;180.75;;;;;;;9.50;84.54;99689.44;342437;28;1634;-70
2023/01/01 00:07:49;;;;;;;281.13;181.15;;;;;;;9.52;84.46;99693.69;342021;28;1060;-70
2023/01/01 00:08:01;;;;;;;300.58;191.15;;;;;;;9.57;84.82;99696.16;343536;28;1630;-70
2023/01/01 00:08:16;;;;;;;318.05;201.75;;;;;;;9.55;84.84;99695.34;343742;28;1231;-71
2023/01/01 00:08:28;;;;;;;317.77;208.52;;;;;;;9.53;84.70;99692.78;343219;28;1313;-71
2023/01/01 00:08:40;;;;;;;322.83;210.48;;;;;;;9.57;84.92;99690.97;343478;28;1259;-71
2023/01/01 00:10:26;;;;;;;331.73;215.50;;;;;;;9.59;84.87;99692.63;342148;28;1042;-70
2023/01/01 00:10:28;;;;;;;329.75;221.18;;;;;;;9.83;83.74;99687.63;340975;28;1106;-71
2023/01/01 00:10:40;;;;;;;339.58;232.15;;;;;;;9.70;82.49;99691.47;340932;29;1596;-71
2023/01/01 00:10:52;;;;;;;350.83;239.38;;;;;;;9.64;82.58;99691.63;341824;28;1091;-70
2023/01/01 00:11:06;;;;;;;356.85;242.48;;;;;;;9.59;83.06;99687.41;342151;28;1108;-71
2023/01/01 00:11:21;;;;;;;358.55;243.65;;;;;;;9.58;83.29;99690.94;340784;29;997;-71
2023/01/01 00:11:33;;;;;;;363.00;244.32;;;;;;;9.64;83.32;99692.50;342163;28;1155;-70
2023/01/01 00:11:45;;;;;;;354.33;232.18;;;;;;;9.68;83.47;99688.94;341862;28;1040;-70
2023/01/01 00:11:57;;;;;;;333.48;217.85;;;;;;;9.72;83.30;99692.28;340820;29;1060;-70
2023/01/01 00:12:10;;;;;;;319.45;209.68;;;;;;;9.74;83.24;99682.72;341266;29;787;-71
2023/01/01 00:12:23;;;;;;;315.58;208.90;;;;;;;9.74;83.53;99687.91;339769;29;1036;-71
2023/01/01 00:12:35;;;;;;;318.25;211.23;;;;;;;9.74;83.24;99687.91;339694;29;1021;-70
2023/01/01 00:12:47;;;;;;;321.40;209.43;;;;;;;9.77;83.14;99685.22;339521;28;1157;-71
2023/01/01 00:13:00;;;;;;;329.63;211.10;;;;;;;9.75;83.31;99687.00;340859;29;1024;-71
2023/01/01 00:13:14;;;;;;;330.88;211.05;;;;;;;9.78;83.35;99690.38;340802;29;1241;-70
2023/01/01 00:13:26;;;;;;;331.60;212.57;;;;;;;9.79;83.26;99691.22;340823;29;1028;-71
2023/01/01 00:13:40;;;;;;;332.50;216.32;;;;;;;9.80;nan;99687.72;339827;29;1096;-70
2023/01/01 00:13:52;;;;;;;332.42;218.65;;;;;;;9.82;83.63;99685.06;339540;29;1074;-70
2023/01/01 00:14:04;;;;;;;321.95;209.60;;;;;;;9.84;82.97;99689.34;340458;29;1039;-71
2023/01/01 00:14:23;;;;;;;312.27;198.05;;;;;;;9.85;83.63;99685.84;340568;29;1278;-70
2023/01/01 00:14:35;;;;;;;311.52;201.93;;;;;;;9.88;83.51;99684.88;340605;29;1045;-70
2023/01/01 00:14:47;;;;;;;306.40;203.98;;;;;;;9.89;83.40;99684.84;340532;29;1252;-70
2023/01/01 00:14:59;;;;;;;309.55;205.90;;;;;;;9.91;83.29;99690.84;339893;29;1178;-71
2023/01/01 00:15:11;;;;;;;323.73;209.73;;;;;;;9.93;83.05;99688.22;341085;29;936;-70
2023/01/01 00:15:24;;;;;;;331.73;213.88;;;;;;;9.92;83.16;99683.91;340694;29;1138;-71
2023/01/01 00:15:36;;;;;;;331.17;215.20;;;;;;;9.95;83.22;99694.22;341126;29;1148;-71
2023/01/01 00:15:48;;;;;;;318.08;209.90;;;;;;;9.97;83.24;99690.66;340900;29;1160;-71
2023/01/01 00:16:12;;;;;;;304.58;202.93;;;;;;;9.86;83.29;99692.75;340644;29;1021;-71
2023/01/01 00:16:24;;;;;;;317.55;209.40;;;;;;;9.70;84.24;99687.13;340929;29;1050;-71
2023/01/01 00:16:36;;;;;;;327.55;215.68;;;;;;;9.80;84.11;99687.72;340346;29;1016;-71
2023/01/01 00:16:48;;;;;;;306.48;197.65;;;;;;;9.85;83.99;99696.22;339786;29;1086;-71
2023/01/01 00:17:01;;;;;;;293.55;189.43;;;;;;;9.86;83.94;99686.69;339681;29;1404;-71
2023/01/01 00:17:13;;;;;;;291.20;186.48;;;;;;;9.85;83.93;99695.38;339820;29;1073;-70
2023/01/01 00:17:25;;;;;;;307.67;196.23;;;;;;;9.86;83.79;99687.56;340003;29;1038;-71
2023/01/01 00:17:37;;;;;;;317.02;205.30;;;;;;;9.83;83.65;99687.63;340087;29;1066;-71
2023/01/01 00:17:49;;;;;;;336.20;218.45;;;;;;;9.65;83.66;99689.00;341900;28;1465;-71
2023/01/01 00:18:01;;;;;;;335.60;220.10;;;;;;;9.50;83.99;99692.03;340903;29;1199;-71
2023/01/01 00:18:13;;;;;;;338.83;222.18;;;;;;;9.39;84.34;99689.72;342233;28;1146;-70
2023/01/01 00:18:25;;;;;;;339.20;223.60;;;;;;;9.39;84.64;99687.13;342220;28;1028;-70
2023/01/01 00:18:38;;;;;;;350.20;229.95;;;;;;;9.32;85.04;99691.63;340956;29;891;-70
2023/01/01 00:18:50;;;;;;;359.17;236.77;;;;;;;9.28;85.03;99689.19;340791;29;1170;-71
2023/01/01 00:19:02;;;;;;;362.98;236.88;;;;;;;9.30;85.07;99687.41;339419;29;1020;-70
2023/01/01 00:19:14;;;;;;;362.23;236.18;;;;;;;9.32;84.86;99690.81;339751;29;1113;-70
2023/01/01 00:19:26;;;;;;;370.42;238.85;;;;;;;9.22;85.31;99686.75;339435;29;1246;-71
2023/01/01 00:19:38;;;;;;;371.70;242.27;;;;;;;9.11;85.33;99695.63;339419;29;1042;-71
2023/01/01 00:19:50;;;;;;;371.98;242.65;;;;;;;9.21;85.51;99693.66;339386;29;1046;-70
2023/01/01 00:20:03;;;;;;;372.45;243.57;;;;;;;9.25;85.18;99686.66;339784;29;1008;-71
2023/01/01 00:20:15;;;;;;;371.02;243.32;;;;;;;9.24;84.67;99691.00;339289;29;1032;-71
2023/01/01 00:20:27;;;;;;;369.10;242.98;;;;;;;9.25;84.30;99684.06;338568;29;1054;-71
2023/01/01 00:20:46;;;;;;;358.33;238.18;;;;;;;9.30;83.83;99688.25;339372;29;1926;-71
2023/01/01 00:21:05;;;;;;;364.45;239.50;;;;;;;9.40;84.19;99687.09;340162;29;1316;-71
2023/01/01 00:21:17;;;;;;;384.95;247.98;;;;;;;9.38;82.99;99688.88;339695;29;2227;-70
2023/01/01 00:21:29;;;;;;;379.65;246.65;;;;;;;9.43;82.71;99687.91;340733;29;1591;-71
2023/01/01 00:21:41;;;;;;;363.15;240.98;;;;;;;9.43;82.69;99688.75;341150;29;1103;-71
2023/01/01 00:21:53;;;;;;;342.67;226.68;;;;;;;9.48;82.49;99686.03;341188;29;1065;-71
2023/01/01 00:22:05;;;;;;;336.33;218.43;;;;;;;9.51;82.62;99681.59;341169;29;1094;-71
2023/01/01 00:22:37;;;;;;;352.85;233.15;;;;;;;9.34;81.90;99684.66;341637;28;1645;-70
2023/01/01 00:23:07;;;;;;;384.13;248.20;;;;;;;9.35;83.11;99675.13;341908;28;1139;-70
2023/01/01 00:23:19;;;;;;;379.35;241.43;;;;;;;9.40;83.29;99687.09;342187;28;1224;-70
2023/01/01 00:23:31;;;;;;;348.25;221.98;;;;;;;9.45;83.30;99679.19;340949;29;1048;-70
2023/01/01 00:23:43;;;;;;;327.20;208.85;;;;;;;9.49;83.31;99683.38;341233;29;838;-71
2023/01/01 00:23:55;;;;;;;340.00;220.38;;;;;;;9.37;83.94;99681.13;342008;28;1247;-71
2023/01/01 00:24:07;;;;;;;346.02;226.00;;;;;;;9.37;84.31;99683.72;342147;28;1269;-71
2023/01/01 00:24:19;;;;;;;352.80;229.65;;;;;;;9.36;84.21;99682.88;342037;28;1246;-71
2023/01/01 00:24:31;;;;;;;357.00;230.73;;;;;;;9.41;84.28;99680.16;343649;28;1069;-71
2023/01/01 00:24:43;;;;;;;355.88;229.88;;;;;;;9.43;84.63;99683.56;341729;28;1088;-71
2023/01/01 00:24:55;;;;;;;352.80;230.90;;;;;;;9.47;84.44;99685.16;343826;28;737;-72
2023/01/01 00:25:10;;;;;;;350.60;231.88;;;;;;;9.50;84.37;99679.91;343461;28;1181;-71
2023/01/01 00:25:23;;;;;;;355.48;230.63;;;;;;;9.52;84.32;99683.31;342288;28;1091;-72
2023/01/01 00:25:35;;;;;;;351.23;226.68;;;;;;;9.57;84.29;99684.03;340908;29;1083;-71
2023/01/01 00:25:47;;;;;;;354.58;229.60;;;;;;;9.62;84.13;99685.63;340881;29;1176;-71
2023/01/01 00:25:59;;;;;;;367.80;238.20;;;;;;;9.64;84.10;99681.25;339498;29;1077;-71
2023/01/01 00:26:13;;;;;;;391.98;255.07;;;;;;;9.66;84.31;99679.47;339599;29;1111;-71
2023/01/01 00:26:25;;;;;;;409.90;266.90;;;;;;;9.68;84.07;99680.28;339622;29;1048;-71
2023/01/01 00:26:45;;;;;;;391.40;256.30;;;;;;;9.75;83.76;99684.41;338095;29;1109;-71
2023/01/01 00:26:58;;;;;;;368.35;242.05;;;;;;;9.77;83.26;99683.47;338105;29;1313;-71
2023/01/01 00:27:11;;;;;;;362.23;237.30;;;;;;;9.80;83.74;99688.56;338223;29;1048;-71
2023/01/01 00:27:23;;;;;;;389.35;254.80;;;;;;;9.80;83.14;99682.53;338707;29;1158;-71
2023/01/01 00:27:35;;;;;;;431.85;282.73;;;;;;;9.73;83.16;99681.00;339467;29;1016;-71
2023/01/01 00:27:47;;;;;;;447.15;296.13;;;;;;;9.67;83.35;99686.38;339801;29;1035;-71
2023/01/01 00:27:59;;;;;;;451.35;298.55;;;;;;;9.63;83.51;99684.75;339462;29;1027;-71
2023/01/01 00:28:13;;;;;;;447.40;294.77;;;;;;;9.62;83.62;99688.22;339551;29;1200;-71
2023/01/01 00:28:25;;;;;;;433.75;282.95;;;;;;;9.68;83.59;99682.88;339397;29;1024;-71
2023/01/01 00:28:37;;;;;;;415.50;273.13;;;;;;;9.70;83.34;99686.28;339403;29;1004;-71
2023/01/01 00:28:49;;;;;;;402.50;266.73;;;;;;;9.72;83.58;99687.09;339565;29;1073;-71
2023/01/01 00:29:03;;;;;;;400.65;265.50;;;;;;;9.75;83.14;99689.59;339492;29;1291;-71
2023/01/01 00:29:15;;;;;;;412.95;269.70;;;;;;;9.78;82.88;99694.72;340365;29;1234;-71
2023/01/01 00:29:27;;;;;;;417.27;270.02;;;;;;;9.77;83.31;99687.81;340999;29;1013;-71
2023/01/01 00:29:39;;;;;;;411.13;265.70;;;;;;;9.80;82.95;99688.56;340943;29;1059;-71
2023/01/01 00:29:51;;;;;;;409.60;264.80;;;;;;;9.79;82.95;99691.22;340759;29;1112;-71
2023/01/01 00:30:03;;;;;;;404.67;263.10;;;;;;;9.77;82.96;99696.44;341313;28;1584;-71
2023/01/01 00:30:16;;;;;;;405.65;265.15;;;;;;;9.80;83.16;99692.94;340889;29;1058;-71
2023/01/01 00:30:28;;;;;;;398.52;261.67;;;;;;;9.83;83.17;99692.81;340864;29;1235;-71
2023/01/01 00:30:40;;;;;;;376.30;246.02;;;;;;;9.85;83.00;99693.63;341887;28;1710;-71
2023/01/01 00:30:52;;;;;;;351.42;228.90;;;;;;;9.89;82.75;99695.25;340937;29;1197;-71
2023/01/01 00:31:12;;;;;;;356.55;232.02;;;;;;;9.83;82.98;99691.97;340807;29;1095;-71
2023/01/01 00:31:24;;;;;;;390.17;251.43;;;;;;;9.78;82.78;99695.56;340754;29;1052;-71
2023/01/01 00:31:38;;;;;;;402.50;260.50;;;;;;;9.80;83.05;99693.75;340690;29;1176;-71
2023/01/01 00:31:51;;;;;;;393.75;259.08;;;;;;;9.86;82.84;99703.13;340836;29;1077;-71
2023/01/01 00:32:03;;;;;;;382.63;250.80;;;;;;;9.88;82.88;99696.16;341861;28;1091;-71
2023/01/01 00:32:18;;;;;;;364.88;239.10;;;;;;;9.91;82.64;99693.44;342051;28;1220;-71
2023/01/01 00:32:34;;;;;;;348.30;229.65;;;;;;;9.95;82.47;99695.06;343541;28;1119;-71
2023/01/01 00:32:46;;;;;;;347.17;229.57;;;;;;;9.97;82.49;99689.81;342293;28;1087;-71
2023/01/01 00:33:06;;;;;;;376.00;248.50;;;;;;;9.99;82.46;99694.06;342696;28;2040;-71
2023/01/01 00:33:18;;;;;;;388.05;251.68;;;;;;;10.00;82.15;99695.78;343261;28;1374;-71
2023/01/01 00:33:30;;;;;;;373.92;239.90;;;;;;;10.03;81.98;99688.81;342502;28;1176;-71
2023/01/01 00:33:43;;;;;;;367.65;238.35;;;;;;;10.03;81.89;99689.63;342280;28;1106;-71
2023/01/01 00:33:56;;;;;;;377.20;245.38;;;;;;;10.05;81.94;99692.19;341890;28;1219;-71
2023/01/01 00:34:09;;;;;;;375.40;243.38;;;;;;;10.06;81.82;99688.69;341116;28;1024;-71
2023/01/01 00:34:20;;;;;;;387.58;253.80;;;;;;;10.06;81.62;99689.56;342016;28;1061;-71
2023/01/01 00:34:33;;;;;;;399.83;263.90;;;;;;;10.07;81.54;99690.41;342129;28;1072;-71
2023/01/01 00:34:45;;;;;;;410.15;262.80;;;;;;;10.07;81.59;99690.41;340799;29;1036;-71
2023/01/01 00:34:57;;;;;;;398.38;255.15;;;;;;;10.08;81.40;99689.50;340725;29;1155;-71
2023/01/01 00:35:09;;;;;;;380.02;247.15;;;;;;;10.10;81.28;99685.09;340694;29;1050;-71
2023/01/01 00:35:21;;;;;;;370.55;242.73;;;;;;;10.11;81.55;99692.00;341004;29;1046;-71
2023/01/01 00:35:34;;;;;;;372.95;243.88;;;;;;;10.12;81.18;99686.78;341588;28;1200;-71
2023/01/01 00:35:46;;;;;;;374.63;243.60;;;;;;;10.10;80.87;99690.31;342134;28;2033;-71
2023/01/01 00:36:05;;;;;;;383.05;247.60;;;;;;;10.08;80.78;99686.91;341561;28;2273;-71
2023/01/01 00:36:18;;;;;;;398.77;256.65;;;;;;;10.00;81.05;99689.75;341966;28;1069;-71
2023/01/01 00:36:33;;;;;;;399.67;257.98;;;;;;;9.98;81.22;99691.53;340605;28;2337;-71
2023/01/01 00:36:45;;;;;;;374.73;245.43;;;;;;;10.02;81.18;99684.47;341351;28;1116;-71
2023/01/01 00:36:57;;;;;;;368.42;241.82;;;;;;;10.00;81.11;99685.41;341100;28;2305;-71
2023/01/01 00:37:10;;;;;;;375.95;242.48;;;;;;;9.98;81.07;99682.00;341378;28;1086;-71
2023/01/01 00:37:22;;;;;;;365.58;236.02;;;;;;;9.96;81.36;99688.97;340855;28;1384;-71
2023/01/01 00:37:34;;;;;;;354.63;231.43;;;;;;;9.95;81.70;99683.81;341025;28;1176;-71
2023/01/01 00:37:46;;;;;;;371.27;240.25;;;;;;;9.94;81.52;99690.78;342108;28;1048;-71
2023/01/01 00:37:58;;;;;;;389.13;248.90;;;;;;;9.94;81.89;99695.97;341931;28;1103;-71
2023/01/01 00:38:10;;;;;;;378.20;243.15;;;;;;;9.85;81.91;99691.03;342067;28;1111;-71
2023/01/01 00:38:22;;;;;;;360.45;230.32;;;;;;;9.83;81.79;99685.03;341352;28;1299;-71
2023/01/01 00:38:35;;;;;;;350.10;222.73;;;;;;;9.83;82.01;99692.81;341434;28;2168;-71
2023/01/01 00:38:47;;;;;;;373.02;236.27;;;;;;;9.82;82.04;99691.13;342494;28;750;-71
2023/01/01 00:39:03;;;;;;;397.30;252.52;;;;;;;9.86;82.08;99687.56;342232;28;1043;-71
2023/01/01 00:39:15;;;;;;;388.00;246.23;;;;;;;9.89;81.93;99687.44;341976;28;1472;-71
2023/01/01 00:39:27;;;;;;;386.48;246.68;;;;;;;9.90;81.73;99688.28;340504;29;1044;-71
2023/01/01 00:39:39;;;;;;;398.50;256.45;;;;;;;9.93;81.64;99688.22;340798;29;1043;-71
2023/01/01 00:39:52;;;;;;;400.63;255.90;;;;;;;9.94;81.39;99695.97;339258;29;1125;-71
2023/01/01 00:40:04;;;;;;;400.30;253.57;;;;;;;9.94;81.50;99695.97;339785;29;1059;-71
2023/01/01 00:40:17;;;;;;;401.73;258.60;;;;;;;9.93;81.37;99689.06;340820;29;1246;-71
2023/01/01 00:40:30;;;;;;;401.27;260.20;;;;;;;9.95;81.71;99691.63;340857;29;1083;-70
2023/01/01 00:40:42;;;;;;;399.60;258.65;;;;;;;9.95;81.52;99687.25;340907;29;1320;-70
2023/01/01 00:40:57;;;;;;;382.42;247.52;;;;;;;9.99;81.51;99694.06;339596;29;1201;-71
2023/01/01 00:41:10;;;;;;;362.20;236.65;;;;;;;10.02;81.10;99697.47;339899;29;731;-71
2023/01/01 00:41:22;;;;;;;350.58;228.95;;;;;;;10.03;80.99;99699.19;339728;29;795;-71
2023/01/01 00:41:34;;;;;;;334.15;217.60;;;;;;;9.99;81.26;99696.66;340608;29;1159;-71
2023/01/01 00:41:46;;;;;;;320.00;207.30;;;;;;;10.03;81.31;99696.59;339657;29;1326;-71
2023/01/01 00:41:58;;;;;;;294.38;191.48;;;;;;;10.04;81.44;99700.88;340373;29;1039;-71
2023/01/01 00:42:11;;;;;;;314.83;202.98;;;;;;;10.03;81.90;99687.03;341154;29;1035;-71
2023/01/01 00:42:23;;;;;;;349.65;226.23;;;;;;;10.07;81.55;99700.78;339727;29;1401;-71
2023/01/01 00:42:39;;;;;;;357.50;230.52;;;;;;;10.08;81.84;99694.69;340955;29;1919;-71
2023/01/01 00:42:51;;;;;;;343.63;222.50;;;;;;;10.10;81.64;99690.31;342025;28;1256;-71
2023/01/01 00:43:02;;;;;;;314.95;205.10;;;;;;;10.12;81.60;99696.28;342080;28;1096;-71
2023/01/01 00:43:14;;;;;;;288.90;184.95;;;;;;;10.15;81.38;99696.22;342295;28;1285;-71
2023/01/01 00:43:27;;;;;;;275.40;171.32;;;;;;;10.16;81.13;99692.72;342051;28;1246;-71
2023/01/01 00:43:40;;;;;;;251.32;155.57;;;;;;;10.17;81.25;99697.03;341984;28;1044;-71
2023/01/01 00:43:52;;;;;;;224.65;140.55;;;;;;;10.14;81.47;99697.97;342097;28;1195;-71
2023/01/01 00:44:04;;;;;;;210.27;131.93;;;;;;;10.12;81.46;99699.78;342090;28;1290;-71
2023/01/01 00:44:15;;;;;;;219.38;135.93;;;;;;;10.09;81.44;99699.00;341993;28;1168;-71
2023/01/01 00:44:27;;;;;;;217.90;133.90;;;;;;;10.02;81.30;99700.06;342392;28;1175;-71
2023/01/01 00:44:39;;;;;;;234.52;145.55;;;;;;;9.92;81.42;99697.75;341160;28;1296;-71
2023/01/01 00:44:52;;;;;;;242.43;151.50;;;;;;;9.95;81.54;99700.25;340736;29;1016;-71
2023/01/01 00:45:05;;;;;;;245.98;152.65;;;;;;;9.91;81.69;99698.63;340792;29;1103;-71
2023/01/01 00:45:17;;;;;;;227.40;140.52;;;;;;;9.93;81.53;99693.41;340621;29;1048;-71
2023/01/01 00:45:33;;;;;;;193.77;123.53;;;;;;;9.92;81.60;99699.47;340597;28;1040;-71
2023/01/01 00:45:47;;;;;;;185.07;119.05;;;;;;;9.90;81.82;99703.88;340994;29;1047;-71
2023/01/01 00:46:00;;;;;;;189.35;120.20;;;;;;;9.87;82.03;99704.81;340855;29;1074;-71
2023/01/01 00:46:12;;;;;;;196.35;121.70;;;;;;;9.87;82.14;99702.22;341119;29;1083;-71
2023/01/01 00:46:24;;;;;;;193.30;118.85;;;;;;;9.89;82.04;99703.03;341075;29;986;-71
2023/01/01 00:46:36;;;;;;;186.48;115.65;;;;;;;9.77;82.22;99695.59;340737;29;1219;-71
2023/01/01 00:46:48;;;;;;;178.27;113.15;;;;;;;9.70;82.49;99694.06;341294;28;1224;-70
2023/01/01 00:47:00;;;;;;;178.65;114.63;;;;;;;9.72;82.33;99700.09;340616;29;1325;-71
2023/01/01 00:47:12;;;;;;;182.32;114.22;;;;;;;9.79;82.55;99697.25;341177;28;1171;-71
2023/01/01 00:47:24;;;;;;;181.95;113.20;;;;;;;9.83;82.18;99698.00;342414;28;1195;-71
2023/01/01 00:47:36;;;;;;;180.68;116.07;;;;;;;9.80;81.96;99703.31;341100;29;1124;-71
2023/01/01 00:47:52;;;;;;;183.60;117.45;;;;;;;9.82;82.02;99700.66;340720;29;1069;-71
2023/01/01 00:48:05;;;;;;;185.30;116.72;;;;;;;9.85;82.06;99705.75;340637;29;1164;-71
2023/01/01 00:48:18;;;;;;;193.75;120.13;;;;;;;9.87;82.07;99698.78;342242;28;1104;-71
2023/01/01 00:48:30;;;;;;;191.35;120.10;;;;;;;9.91;81.81;99698.63;342135;28;1235;-71
2023/01/01 00:48:42;;;;;;;182.85;115.00;;;;;;;9.89;81.49;99697.84;342131;28;1063;-71
2023/01/01 00:48:54;;;;;;;211.82;131.32;;;;;;;9.89;81.69;99700.44;341999;28;1180;-71
2023/01/01 00:49:06;;;;;;;239.00;146.90;;;;;;;9.92;81.83;99704.69;342155;28;1064;-71
2023/01/01 00:49:18;;;;;;;228.52;139.43;;;;;;;9.95;81.35;99704.59;341143;28;1061;-71
2023/01/01 00:49:30;;;;;;;201.63;124.55;;;;;;;9.98;81.60;99701.94;340784;29;1154;-71
2023/01/01 00:49:42;;;;;;;187.00;118.07;;;;;;;9.98;81.33;99702.78;341637;28;1162;-71
2023/01/01 00:49:54;;;;;;;188.57;119.13;;;;;;;9.92;81.13;99708.16;342178;28;1225;-71
2023/01/01 00:50:06;;;;;;;198.05;123.40;;;;;;;9.93;81.03;99704.63;342274;28;1210;-71
2023/01/01 00:50:20;;;;;;;201.52;124.65;;;;;;;9.94;81.29;99701.16;341868;28;1177;-71
2023/01/01 00:50:33;;;;;;;202.33;125.43;;;;;;;9.97;80.98;99701.06;342083;28;1772;-71
2023/01/01 00:50:45;;;;;;;207.32;125.95;;;;;;;9.99;80.94;99704.47;342161;28;1079;-71
2023/01/01 00:50:57;;;;;;;205.77;125.97;;;;;;;10.02;81.01;99702.66;342272;28;1047;-70
2023/01/01 00:51:09;;;;;;;204.60;124.57;;;;;;;10.03;80.82;99706.97;341358;28;2027;-71
2023/01/01 00:51:21;;;;;;;208.07;128.32;;;;;;;10.00;80.35;99706.16;341886;28;1801;-71
2023/01/01 00:51:33;;;;;;;229.77;141.95;;;;;;;9.98;80.35;99702.78;342034;28;1035;-71
2023/01/01 00:51:48;;;;;;;235.88;146.45;;;;;;;10.02;80.32;99700.06;342092;28;1083;-71
2023/01/01 00:52:00;;;;;;;220.23;137.05;;;;;;;10.03;80.67;99705.22;342075;28;1200;-71
2023/01/01 00:52:12;;;;;;;207.27;128.82;;;;;;;10.05;80.30;99702.59;342255;28;1097;-70
2023/01/01 00:52:24;;;;;;;202.98;128.27;;;;;;;10.06;80.40;99709.47;341995;28;1260;-71
2023/01/01 00:52:36;;;;;;;208.93;132.52;;;;;;;10.06;80.04;99704.28;342281;28;1099;-71
2023/01/01 00:52:49;;;;;;;208.07;129.10;;;;;;;10.07;80.23;99696.44;343663;28;1230;-71
2023/01/01 00:53:01;;;;;;;204.82;125.50;;;;;;;10.08;79.86;99702.47;343335;28;1196;-71
2023/01/01 00:53:13;;;;;;;203.32;126.95;;;;;;;10.03;79.73;99705.22;343497;28;1051;-71
2023/01/01 00:53:25;;;;;;;210.95;130.93;;;;;;;9.98;79.79;99701.94;343401;28;1322;-71
2023/01/01 00:53:37;;;;;;;213.73;129.50;;;;;;;9.97;79.87;99701.06;343556;28;1266;-71
2023/01/01 00:53:49;;;;;;;205.35;122.68;;;;;;;9.99;80.12;99709.66;343558;28;1371;-71
2023/01/01 00:54:01;;;;;;;192.18;117.00;;;;;;;10.02;79.70;99703.53;343338;28;1261;-71
2023/01/01 00:54:13;;;;;;;186.68;115.88;;;;;;;10.04;79.55;99708.66;343424;28;1050;-71
2023/01/01 00:54:25;;;;;;;196.95;121.43;;;;;;;9.99;79.57;99704.47;343608;28;1537;-71
2023/01/01 00:54:37;;;;;;;200.48;123.90;;;;;;;10.01;79.76;99707.00;343542;28;1051;-71
2023/01/01 00:54:49;;;;;;;189.95;119.68;;;;;;;10.03;79.89;99704.38;343186;28;1083;-71
2023/01/01 00:55:00;;;;;;;188.32;119.80;;;;;;;10.03;79.75;99705.22;342433;28;1116;-71
2023/01/01 00:55:12;;;;;;;196.82;120.88;;;;;;;10.05;79.83;99707.78;340883;29;1270;-71
2023/01/01 00:55:24;;;;;;;203.85;124.93;;;;;;;10.07;79.62;99706.00;341307;28;1137;-71
2023/01/01 00:55:38;;;;;;;211.48;128.70;;;;;;;10.02;79.41;99700.94;340959;29;1008;-71
2023/01/01 00:55:51;;;;;;;217.63;133.60;;;;;;;10.04;79.33;99695.69;341108;29;796;-71
2023/01/01 00:56:04;;;;;;;202.10;126.57;;;;;;;10.05;79.27;99708.63;340887;28;1165;-71
2023/01/01 00:56:16;;;;;;;194.27;123.20;;;;;;;10.05;79.59;99706.03;342071;28;1074;-71
2023/01/01 00:56:28;;;;;;;192.00;120.20;;;;;;;10.07;79.42;99708.59;341993;28;1093;-71
2023/01/01 00:56:40;;;;;;;199.88;123.88;;;;;;;10.06;79.27;99699.06;342320;28;947;-71
2023/01/01 00:56:52;;;;;;;201.35;124.18;;;;;;;10.07;78.96;99703.41;342403;28;1096;-70
2023/01/01 00:57:05;;;;;;;209.32;129.20;;;;;;;10.07;78.96;99708.59;342081;28;1081;-71
2023/01/01 00:57:17;;;;;;;205.02;129.07;;;;;;;10.06;79.22;99706.88;342828;28;1072;-71
2023/01/01 00:57:28;;;;;;;220.60;139.18;;;;;;;9.87;79.19;99703.97;343442;28;1181;-71
2023/01/01 00:57:40;;;;;;;223.48;141.57;;;;;;;9.86;79.36;99708.31;343438;28;1072;-71
2023/01/01 00:57:53;;;;;;;237.57;147.32;;;;;;;9.89;79.39;99713.41;343106;28;1044;-71
2023/01/01 00:58:05;;;;;;;251.48;156.75;;;;;;;9.90;79.52;99706.47;342240;28;1190;-71
2023/01/01 00:58:18;;;;;;;255.40;160.60;;;;;;;9.91;79.46;99706.44;341729;28;1081;-71
2023/01/01 00:58:30;;;;;;;245.73;155.13;;;;;;;9.88;79.37;99710.84;340852;29;1332;-71
2023/01/01 00:58:43;;;;;;;234.88;146.68;;;;;;;9.88;79.27;99706.53;340889;29;1232;-71
2023/01/01 00:59:11;;;;;;;232.60;141.70;;;;;;;9.88;79.57;99701.34;340696;29;1218;-71
2023/01/01 00:59:23;;;;;;;238.07;142.13;;;;;;;9.88;79.54;99711.72;341113;29;742;-71
2023/01/01 00:59:40;;;;;;;236.82;142.70;;;;;;;9.88;79.39;99701.34;341037;29;1944;-71
2023/01/01 00:59:52;;;;;;;227.23;142.27;;;;;;;9.90;79.14;99704.75;340690;29;1040;-71
2023/01/01 01:00:04;;;;;;;221.98;141.10;;;;;;;9.90;79.37;99703.88;340855;28;1024;-71
2023/01/01 01:00:16;;;;;;;213.20;134.10;;;;;;;9.91;79.45;99701.25;341748;28;1375;-70
2023/01/01 01:00:28;;;;;;;218.80;136.52;;;;;;;9.93;79.30;99696.84;342290;28;1174;-71
2023/01/01 01:00:41;;;;;;;223.85;139.55;;;;;;;9.91;79.14;99701.25;342154;28;1051;-71
2023/01/01 01:00:54;;;;;;;233.52;143.70;;;;;;;9.87;79.55;99704.81;342142;28;1150;-71
2023/01/01 01:01:06;;;;;;;238.63;144.90;;;;;;;9.90;79.93;99706.47;342084;28;1200;-71
2023/01/01 01:01:18;;;;;;;243.80;145.95;;;;;;;9.89;79.52;99703.03;342149;28;1032;-71
2023/01/01 01:01:32;;;;;;;241.68;145.98;;;;;;;9.89;79.37;99705.63;342258;28;1035;-71